Time;durP1;ratioP1;P1;durP2;ratioP2;P2;SDS_P1;SDS_P2;PMS_P1;PMS_P2;Temp;Humidity;BMP_temperature;BMP_pressure;BME280_temperature;BME280_humidity;BME280_pressure;Samples;Min_cycle;Max_cycle;Signal;HPM_P1;HPM_P2
2022/06/08 09:08:10;;;;;;;11.32;1.10;;;;;;;21.45;44.62;96005.41;2082167;28;20557;-63
2022/06/08 09:09:23;;;;;;;11.80;1.70;;;;;;;21.23;43.91;95998.72;2083432;28;20201;-67
2022/06/08 09:10:26;;;;;;;8.52;1.27;;;;;;;21.69;43.72;95999.50;2084921;28;20239;-66
2022/06/08 09:11:33;;;;;;;15.55;1.40;;;;;;;21.55;43.37;95992.09;2085057;28;20679;-66
2022/06/08 09:12:34;;;;;;;12.00;1.27;;;;;;;21.52;43.38;95982.56;2064503;28;20313;-65
2022/06/08 09:13:50;;;;;;;10.07;1.45;;;;;;;21.56;44.50;95990.25;2067767;28;20200;-65
2022/06/08 09:15:00;;;;;;;9.90;1.10;;;;;;;21.36;44.99;95983.25;2062554;28;20198;-66
2022/06/08 09:16:02;;;;;;;14.18;1.25;;;;;;;21.33;44.92;95983.56;2062316;28;20289;-66
2022/06/08 09:17:11;;;;;;;10.85;1.55;;;;;;;21.27;45.48;95983.31;2059147;28;20224;-63
2022/06/08 09:18:39;;;;;;;8.90;1.25;;;;;;;21.23;44.48;95996.06;2071080;28;20760;-64
2022/06/08 09:19:49;;;;;;;15.27;1.60;;;;;;;21.23;44.38;95981.94;2065847;28;20224;-62
2022/06/08 09:20:51;;;;;;;9.15;1.25;;;;;;;21.13;45.13;95982.03;2063423;28;20215;-62
2022/06/08 09:21:53;;;;;;;10.52;1.55;;;;;;;21.07;45.23;95974.69;2056551;28;20229;-62
2022/06/08 09:22:58;;;;;;;7.68;1.10;;;;;;;21.04;44.77;95968.66;2075027;28;20210;-62
2022/06/08 09:24:36;;;;;;;9.70;1.30;;;;;;;20.85;44.36;95971.47;2069826;28;20198;-62
2022/06/08 09:25:38;;;;;;;14.02;1.55;;;;;;;20.76;45.51;95965.22;2066546;28;20202;-62
2022/06/08 09:26:40;;;;;;;9.75;1.00;;;;;;;21.52;45.13;95968.44;2062627;28;20198;-63
2022/06/08 09:27:52;;;;;;;8.20;1.27;;;;;;;21.58;44.45;95973.16;2062643;28;20259;-63
2022/06/08 09:29:14;;;;;;;8.15;1.85;;;;;;;21.60;45.32;95967.69;2068533;28;20205;-63
2022/06/08 09:30:18;;;;;;;7.38;1.10;;;;;;;21.41;45.79;95966.88;2062021;28;20201;-62
2022/06/08 09:31:26;;;;;;;14.23;2.58;;;;;;;21.05;43.15;95969.50;2066761;28;20198;-62
2022/06/08 09:32:50;;;;;;;8.85;1.40;;;;;;;20.97;44.04;95964.94;2056180;28;20225;-62
2022/06/08 09:34:05;;;;;;;10.05;1.08;;;;;;;20.79;44.11;95974.72;2070028;28;20217;-63
2022/06/08 09:35:30;;;;;;;8.18;1.15;;;;;;;21.36;43.21;95967.31;2067014;28;20202;-63
2022/06/08 09:36:32;;;;;;;9.73;1.10;;;;;;;21.22;42.86;95973.16;2055194;28;20199;-62
2022/06/08 09:37:33;;;;;;;8.25;0.90;;;;;;;20.95;44.04;95960.75;2068967;28;20202;-62
2022/06/08 10:22:01;;;;;;;9.20;1.05;;;;;;;20.35;44.21;95924.91;2074830;28;20575;-65
2022/06/08 10:23:24;;;;;;;13.40;1.55;;;;;;;20.65;43.96;95922.97;2085753;28;20196;-65
2022/06/08 10:24:47;;;;;;;8.25;1.00;;;;;;;20.90;43.82;95923.22;2078540;28;20220;-65
2022/06/08 10:25:55;;;;;;;8.07;1.10;;;;;;;20.97;43.58;95925.13;2078596;28;20193;-65
2022/06/08 10:27:06;;;;;;;8.10;1.25;;;;;;;20.88;43.60;95920.75;2076753;28;20251;-65
2022/06/08 10:28:44;;;;;;;12.77;1.40;;;;;;;21.12;42.98;95919.31;2077506;28;20201;-66
2022/06/08 10:30:03;;;;;;;9.02;1.25;;;;;;;21.27;44.41;95920.44;2078261;28;20209;-66
2022/06/08 10:31:32;;;;;;;13.90;1.63;;;;;;;21.60;42.01;95919.88;2077344;28;20204;-66
2022/06/08 10:32:59;;;;;;;16.80;1.40;;;;;;;20.93;41.68;95918.47;2077875;28;20252;-65
2022/06/08 10:34:15;;;;;;;12.00;1.40;;;;;;;20.98;41.46;95920.69;2078325;28;20201;-65
2022/06/08 10:35:33;;;;;;;13.68;1.50;;;;;;;21.19;41.75;95915.91;2078762;28;20632;-65
2022/06/08 10:36:35;;;;;;;15.20;1.65;;;;;;;21.28;41.89;95913.31;2069258;28;20209;-65
2022/06/08 10:37:39;;;;;;;13.43;1.17;;;;;;;21.40;41.44;95921.88;2085617;28;20211;-65
2022/06/08 10:38:43;;;;;;;12.70;2.05;;;;;;;21.52;41.57;95913.50;2084351;28;20205;-65
2022/06/08 10:39:47;;;;;;;11.27;1.35;;;;;;;21.54;42.05;95914.16;2078099;28;20197;-65
2022/06/08 10:41:01;;;;;;;9.50;1.10;;;;;;;21.60;42.00;95912.75;2077929;28;20208;-66
2022/06/08 10:43:36;;;;;;;14.07;1.17;;;;;;;21.31;41.86;95913.84;2085382;28;20874;-65
2022/06/08 10:44:44;;;;;;;13.23;1.40;;;;;;;21.30;41.57;95906.03;2078614;28;20197;-65
2022/06/08 10:45:53;;;;;;;14.65;1.55;;;;;;;21.13;42.74;95911.19;2077891;28;20247;-65
2022/06/08 10:52:48;;;;;;;15.15;1.50;;;;;;;21.37;41.91;95899.94;2082510;28;20568;-64
2022/06/08 10:55:37;;;;;;;12.15;1.10;;;;;;;22.25;40.22;95897.38;2079749;28;20203;-64
2022/06/08 10:56:39;;;;;;;13.65;1.20;;;;;;;22.20;40.58;95902.31;2068548;28;20201;-64
2022/06/08 10:58:11;;;;;;;13.70;1.20;;;;;;;22.67;39.23;95893.88;2078901;28;20208;-64
2022/06/08 10:59:19;;;;;;;14.70;1.13;;;;;;;23.03;40.04;95890.94;2073409;28;20202;-64
2022/06/08 11:00:28;;;;;;;15.52;1.20;;;;;;;23.35;40.24;95886.69;2070915;28;20216;-65
2022/06/08 11:01:41;;;;;;;23.17;1.30;;;;;;;23.92;37.76;95892.94;2066787;28;20649;-64
2022/06/08 11:02:53;;;;;;;27.23;2.30;;;;;;;23.44;38.82;95885.66;2073793;28;21090;-66
2022/06/08 11:03:55;;;;;;;17.17;1.88;;;;;;;23.72;38.16;95887.13;2070961;28;20228;-62
2022/06/08 11:05:07;;;;;;;19.85;1.42;;;;;;;23.67;38.60;95882.31;2070444;28;20259;-65
2022/06/08 11:06:14;;;;;;;19.25;2.17;;;;;;;23.84;36.62;95884.94;2072543;28;20201;-64
2022/06/08 11:07:19;;;;;;;20.05;1.88;;;;;;;23.58;37.80;95883.31;2071959;28;20222;-64
2022/06/08 11:08:23;;;;;;;23.23;2.17;;;;;;;23.84;37.96;95883.09;2065320;28;20202;-64
2022/06/08 11:09:33;;;;;;;27.40;3.22;;;;;;;23.51;36.03;95869.84;2065180;28;20201;-64
2022/06/08 11:10:44;;;;;;;24.90;3.58;;;;;;;24.00;35.49;95878.75;2074075;28;20205;-64
2022/06/08 11:11:50;;;;;;;28.13;3.92;;;;;;;24.02;35.73;95872.25;2065060;28;20272;-64
2022/06/08 11:12:53;;;;;;;32.95;4.88;;;;;;;23.57;36.25;95860.34;2082429;28;20220;-64
2022/06/08 11:13:54;;;;;;;32.25;4.35;;;;;;;22.97;37.80;95868.47;2079512;28;20233;-64
2022/06/08 11:15:09;;;;;;;30.38;4.25;;;;;;;23.43;37.20;95864.53;2072875;28;20731;-64
2022/06/08 11:16:42;;;;;;;37.00;6.97;;;;;;;22.95;36.28;95878.44;2077248;28;20212;-64
2022/06/08 11:17:58;;;;;;;42.38;5.88;;;;;;;22.46;35.70;95870.34;2072672;28;20225;-64
2022/06/08 11:19:14;;;;;;;37.88;5.97;;;;;;;22.13;37.08;95868.41;2074056;28;20696;-65
2022/06/08 11:20:38;;;;;;;31.77;4.57;;;;;;;22.23;37.56;95862.94;2068669;28;20197;-65
2022/06/08 11:21:57;;;;;;;27.27;3.15;;;;;;;22.35;37.05;95871.47;2060291;28;20291;-64
2022/06/08 11:23:10;;;;;;;28.10;3.78;;;;;;;21.96;37.66;95870.13;2080912;28;20523;-64
2022/06/08 11:24:24;;;;;;;22.10;2.00;;;;;;;22.05;38.54;95865.69;2076441;28;20216;-64
2022/06/08 11:25:32;;;;;;;21.70;1.90;;;;;;;22.23;38.74;95864.78;2073009;28;20286;-65
2022/06/08 11:26:36;;;;;;;23.45;1.80;;;;;;;22.26;38.56;95867.09;2073198;28;20201;-65
2022/06/08 11:27:39;;;;;;;21.10;1.98;;;;;;;22.25;38.54;95857.47;2067530;28;20198;-65
2022/06/08 11:28:45;;;;;;;20.20;1.75;;;;;;;22.41;38.65;95864.69;2068904;28;20197;-65
2022/06/08 11:29:52;;;;;;;24.58;3.45;;;;;;;22.46;37.73;95855.25;2074129;28;20208;-65
2022/06/08 11:30:57;;;;;;;27.92;2.58;;;;;;;22.29;37.97;95859.63;2076298;28;20497;-65
2022/06/08 11:31:58;;;;;;;19.65;1.70;;;;;;;22.25;38.65;95858.31;2073218;28;20221;-64
2022/06/08 11:33:14;;;;;;;19.75;1.58;;;;;;;22.47;39.11;95861.41;2083049;28;20224;-65
2022/06/08 11:34:18;;;;;;;23.08;2.40;;;;;;;22.33;37.89;95861.00;2072802;28;20239;-65
2022/06/08 11:35:54;;;;;;;23.67;2.17;;;;;;;22.86;37.76;95858.16;2074042;28;20212;-64
2022/06/08 11:37:26;;;;;;;24.08;2.50;;;;;;;22.59;37.98;95857.44;2065378;28;20221;-65
2022/06/08 11:38:35;;;;;;;20.00;1.65;;;;;;;22.54;38.83;95858.91;2077159;28;20194;-64
2022/06/08 11:39:42;;;;;;;23.45;3.53;;;;;;;22.12;38.64;95861.41;2069767;28;20610;-65
2022/06/08 11:40:45;;;;;;;50.10;18.63;;;;;;;22.22;38.46;95853.31;2073875;28;20204;-65
2022/06/08 11:42:14;;;;;;;23.50;3.40;;;;;;;22.23;38.87;95840.84;2067363;28;20193;-64
2022/06/08 11:43:18;;;;;;;21.08;1.95;;;;;;;22.09;38.78;95856.41;2077533;28;20212;-66
2022/06/08 11:44:20;;;;;;;19.60;1.50;;;;;;;22.05;39.98;95854.25;2071857;28;20198;-67
2022/06/08 11:45:47;;;;;;;17.33;1.70;;;;;;;22.03;39.80;95862.38;2070904;28;20280;-63
2022/06/08 11:59:57;;;;;;;17.27;1.50;;;;;;;22.01;40.08;95840.44;2085069;28;20561;-62
2022/06/08 12:01:02;;;;;;;20.73;1.55;;;;;;;22.03;39.61;95843.78;2078878;28;20193;-63
2022/06/08 12:02:20;;;;;;;20.00;1.85;;;;;;;22.06;39.70;95846.09;2073343;28;20225;-63
2022/06/08 12:03:31;;;;;;;19.38;1.70;;;;;;;22.01;40.96;95843.09;2077660;28;20207;-63
2022/06/08 12:04:33;;;;;;;14.45;1.55;;;;;;;22.17;40.48;95850.31;2076111;28;20237;-64
2022/06/08 12:05:35;;;;;;;13.20;1.60;;;;;;;22.17;40.38;95840.50;2070686;28;20205;-63
2022/06/08 12:06:39;;;;;;;20.35;1.65;;;;;;;22.40;39.89;95836.44;2061392;28;20198;-64
2022/06/08 12:07:59;;;;;;;15.18;1.25;;;;;;;23.20;38.27;95833.25;2078339;28;20247;-64
2022/06/08 12:09:12;;;;;;;15.85;1.42;;;;;;;23.76;37.08;95832.50;2070116;28;20194;-64
2022/06/08 12:10:21;;;;;;;15.35;1.40;;;;;;;24.02;37.37;95821.59;2061732;28;20201;-63
2022/06/08 12:11:25;;;;;;;19.40;1.52;;;;;;;23.91;36.55;95828.16;2062292;28;20201;-63
2022/06/08 12:12:28;;;;;;;21.38;1.60;;;;;;;24.17;36.96;95832.38;2067614;28;20228;-63
2022/06/08 12:13:31;;;;;;;26.98;2.65;;;;;;;24.44;35.15;95830.25;2078037;28;20201;-63
2022/06/08 12:14:38;;;;;;;26.13;3.70;;;;;;;24.49;35.00;95827.88;2061762;28;20206;-63
2022/06/08 12:15:43;;;;;;;27.25;3.47;;;;;;;23.96;35.84;95825.78;2062396;28;20746;-63
2022/06/08 12:16:58;;;;;;;28.02;4.03;;;;;;;24.56;35.48;95834.19;2053896;28;20199;-64
2022/06/08 12:18:50;;;;;;;29.42;4.72;;;;;;;24.32;34.68;95823.66;2070927;28;20197;-63
2022/06/08 12:19:58;;;;;;;33.05;4.32;;;;;;;24.56;35.33;95820.03;2052846;28;20227;-63
2022/06/08 12:21:23;;;;;;;33.65;5.18;;;;;;;24.80;35.50;95826.22;2059485;28;20311;-63
2022/06/08 12:22:25;;;;;;;34.35;6.53;;;;;;;24.33;35.72;95827.97;2060914;28;20230;-63
2022/06/08 12:24:01;;;;;;;41.40;5.80;;;;;;;23.69;35.72;95819.00;2062384;28;20206;-63
2022/06/08 12:25:08;;;;;;;41.03;6.40;;;;;;;23.59;36.35;95835.19;2057457;28;20213;-63
2022/06/08 12:26:20;;;;;;;30.00;5.63;;;;;;;23.77;37.82;95832.31;2061145;28;20195;-63
2022/06/08 12:27:24;;;;;;;30.17;3.88;;;;;;;23.59;37.30;95832.53;2065279;28;21209;-63
2022/06/08 12:28:26;;;;;;;42.88;8.15;;;;;;;23.30;36.03;95823.25;2068592;28;20573;-62
2022/06/08 12:29:39;;;;;;;40.47;8.55;;;;;;;23.44;36.26;95819.06;2061214;28;20206;-63
2022/06/08 12:30:43;;;;;;;35.40;6.20;;;;;;;23.86;35.85;95825.13;2077009;28;20683;-62
2022/06/08 12:31:44;;;;;;;34.42;5.35;;;;;;;24.07;36.42;95824.56;2067356;28;20205;-62
2022/06/08 12:32:56;;;;;;;32.95;5.75;;;;;;;24.17;36.12;95824.38;2069678;28;20990;-63
2022/06/08 12:34:24;;;;;;;31.98;6.05;;;;;;;24.26;35.69;95819.84;2064963;28;20207;-63
2022/06/08 12:35:32;;;;;;;33.00;5.57;;;;;;;24.43;36.20;95816.09;2062239;28;20206;-62
2022/06/08 12:36:34;;;;;;;47.67;16.50;;;;;;;24.11;35.90;95814.41;2052437;28;20413;-63
2022/06/08 12:37:43;;;;;;;37.67;5.63;;;;;;;24.28;36.40;95817.84;2077703;28;20256;-62
2022/06/08 12:38:59;;;;;;;39.33;8.48;;;;;;;24.02;35.46;95807.44;2073974;28;20306;-63
2022/06/08 12:40:22;;;;;;;40.17;6.95;;;;;;;24.38;34.99;95813.13;2062207;28;20721;-63
2022/06/08 12:41:40;;;;;;;44.30;10.05;;;;;;;23.21;37.48;95810.94;2061511;28;20195;-62
2022/06/08 12:42:51;;;;;;;38.15;7.25;;;;;;;24.54;35.14;95814.03;2070176;28;20248;-63
2022/06/08 12:44:06;;;;;;;34.70;5.40;;;;;;;25.53;33.21;95814.09;2069609;28;20281;-63
2022/06/08 12:45:25;;;;;;;39.53;5.28;;;;;;;25.59;33.38;95812.56;2070230;28;20649;-63
2022/06/08 12:46:31;;;;;;;41.90;6.55;;;;;;;25.40;33.27;95809.41;2069394;28;20300;-63
2022/06/08 12:47:42;;;;;;;46.83;8.80;;;;;;;25.61;32.93;95807.88;2069980;28;20241;-63
2022/06/08 12:48:58;;;;;;;45.15;9.02;;;;;;;25.64;33.25;95812.84;2070194;28;20198;-63
2022/06/08 12:50:14;;;;;;;37.67;7.35;;;;;;;25.67;35.50;95796.44;2070107;28;20193;-63
2022/06/08 12:51:36;;;;;;;30.70;4.45;;;;;;;25.94;36.21;95804.84;2070119;28;20233;-63
2022/06/08 12:52:38;;;;;;;34.15;4.57;;;;;;;26.37;35.58;95798.78;2068097;28;20666;-63
2022/06/08 12:53:39;;;;;;;37.83;8.10;;;;;;;26.80;34.29;95806.91;2069648;28;20194;-63
2022/06/08 12:54:41;;;;;;;48.70;9.20;;;;;;;26.43;34.87;95803.41;2069599;28;20198;-63
2022/06/08 12:55:42;;;;;;;41.63;10.18;;;;;;;26.56;35.23;95795.53;2069913;28;20193;-64
2022/06/08 12:56:46;;;;;;;41.50;11.13;;;;;;;26.79;34.89;95801.75;2064067;28;20772;-64
2022/06/08 12:57:48;;;;;;;49.80;10.88;;;;;;;27.17;34.01;95801.47;2085924;28;20702;-64
2022/06/08 12:58:51;;;;;;;46.58;12.23;;;;;;;26.90;34.28;95798.56;2080810;28;20192;-64
2022/06/08 12:59:55;;;;;;;52.60;13.98;;;;;;;26.56;34.30;95797.34;2069654;28;20221;-65
2022/06/08 13:00:57;;;;;;;61.33;18.58;;;;;;;25.87;34.41;95795.88;2068748;28;20692;-64
2022/06/08 13:01:59;;;;;;;56.85;16.88;;;;;;;25.88;35.33;95802.91;2069642;28;20696;-64
2022/06/08 13:03:18;;;;;;;61.72;18.42;;;;;;;25.57;34.46;95796.72;2070047;28;20209;-64
2022/06/08 13:04:22;;;;;;;62.72;20.40;;;;;;;25.39;35.38;95796.22;2069802;28;20324;-64
2022/06/08 13:05:31;;;;;;;73.05;25.75;;;;;;;25.30;34.75;95789.28;2068140;28;20198;-64
2022/06/08 13:06:33;;;;;;;71.63;24.05;;;;;;;25.45;35.20;95786.66;2060615;28;20217;-64
2022/06/08 13:07:35;;;;;;;60.72;19.50;;;;;;;25.06;36.66;95797.31;2077008;28;20201;-64
2022/06/08 13:08:37;;;;;;;60.38;18.30;;;;;;;25.09;36.78;95788.97;2077012;28;20193;-65
2022/06/08 13:09:39;;;;;;;51.92;16.10;;;;;;;25.18;37.56;95794.22;2070076;28;20855;-64
2022/06/08 13:10:40;;;;;;;54.78;16.17;;;;;;;25.13;37.20;95796.59;2067953;28;20198;-63
2022/06/08 13:11:44;;;;;;;55.03;16.65;;;;;;;24.57;38.27;95795.81;2057676;28;20194;-62
2022/06/08 13:12:50;;;;;;;53.50;14.30;;;;;;;24.82;38.10;95793.00;2080304;28;20555;-63
2022/06/08 13:13:55;;;;;;;52.42;15.75;;;;;;;24.50;38.23;95796.72;2073137;28;20233;-62
2022/06/08 13:14:58;;;;;;;52.58;15.35;;;;;;;24.71;37.13;95793.41;2064628;28;20194;-63
2022/06/08 13:16:03;;;;;;;56.78;18.05;;;;;;;24.52;36.51;95794.69;2064614;28;20210;-62
2022/06/08 13:17:04;;;;;;;49.22;15.93;;;;;;;24.46;37.83;95793.56;2062841;28;20228;-63
2022/06/08 13:18:10;;;;;;;44.28;10.95;;;;;;;24.47;38.43;95792.56;2080188;28;20638;-62
2022/06/08 13:19:14;;;;;;;45.40;13.00;;;;;;;24.46;37.50;95796.22;2067595;28;20202;-62
2022/06/08 13:20:22;;;;;;;43.63;11.43;;;;;;;24.73;37.69;95781.56;2064568;28;20353;-63
2022/06/08 13:21:25;;;;;;;37.15;7.20;;;;;;;25.01;37.99;95799.69;2064290;28;20573;-62
2022/06/08 13:22:27;;;;;;;38.97;11.10;;;;;;;25.03;36.80;95796.88;2062421;28;20776;-62
2022/06/08 13:23:28;;;;;;;44.40;12.20;;;;;;;24.91;37.13;95789.28;2064544;28;20225;-62
2022/06/08 13:24:30;;;;;;;45.38;13.35;;;;;;;24.82;37.27;95797.53;2064433;28;20242;-62
2022/06/08 13:25:33;;;;;;;45.88;12.73;;;;;;;24.86;37.20;95794.31;2064576;28;20198;-62
2022/06/08 13:26:34;;;;;;;42.83;11.55;;;;;;;24.28;38.17;95789.31;2056052;28;20206;-62
2022/06/08 13:27:36;;;;;;;39.88;10.45;;;;;;;24.73;37.59;95788.75;2070865;28;20541;-62
2022/06/08 13:28:38;;;;;;;42.45;11.13;;;;;;;24.77;37.28;95782.88;2071030;28;20574;-62
2022/06/08 13:29:39;;;;;;;43.47;12.90;;;;;;;24.82;37.43;95790.34;2060557;28;20199;-62
2022/06/08 13:30:43;;;;;;;40.25;12.07;;;;;;;24.96;36.93;95786.06;2061365;28;20519;-62
2022/06/08 13:31:44;;;;;;;47.80;13.38;;;;;;;24.83;37.17;95781.31;2058474;28;20256;-63
2022/06/08 13:32:49;;;;;;;43.92;12.70;;;;;;;24.24;37.53;95785.34;2080211;28;20228;-62
2022/06/08 13:33:57;;;;;;;48.70;16.20;;;;;;;24.44;37.49;95779.56;2073662;28;20194;-62
2022/06/08 13:35:02;;;;;;;43.88;14.02;;;;;;;24.81;37.31;95780.69;2064347;28;20208;-62
2022/06/08 13:36:25;;;;;;;46.97;13.30;;;;;;;24.67;36.79;95792.13;2064424;28;20226;-62
2022/06/08 13:37:33;;;;;;;45.15;12.23;;;;;;;24.85;36.75;95790.00;2069464;28;20607;-62
2022/06/08 13:38:34;;;;;;;51.28;14.02;;;;;;;24.80;36.33;95786.19;2079029;28;20201;-62
2022/06/08 13:39:39;;;;;;;45.30;11.15;;;;;;;24.73;37.38;95781.56;2063452;28;20210;-62
2022/06/08 13:40:40;;;;;;;44.47;12.48;;;;;;;24.77;36.82;95785.53;2063709;28;20600;-63
2022/06/08 13:41:44;;;;;;;37.50;11.80;;;;;;;24.97;37.89;95778.88;2063783;28;20198;-62
2022/06/08 13:42:46;;;;;;;46.00;12.68;;;;;;;24.70;36.51;95779.25;2064603;28;20198;-63
2022/06/08 13:43:47;;;;;;;46.08;13.90;;;;;;;24.85;36.67;95783.81;2063695;28;20225;-62
2022/06/08 13:44:54;;;;;;;46.92;11.52;;;;;;;25.12;36.44;95782.41;2063865;28;20206;-62
2022/06/08 13:45:55;;;;;;;47.08;15.73;;;;;;;25.35;35.90;95785.03;2064230;28;20671;-63
2022/06/08 13:46:59;;;;;;;43.47;14.52;;;;;;;25.47;35.67;95782.81;2060746;28;20236;-62
2022/06/08 13:48:06;;;;;;;58.58;18.67;;;;;;;25.55;34.69;95780.03;2079622;28;20196;-63
2022/06/08 13:49:12;;;;;;;49.22;16.70;;;;;;;25.55;35.36;95782.69;2070233;28;20206;-62
2022/06/08 13:50:30;;;;;;;60.05;15.68;;;;;;;25.57;35.66;95783.34;2064039;28;20844;-62
2022/06/08 13:51:32;;;;;;;56.70;14.35;;;;;;;25.56;35.53;95783.50;2054462;28;20202;-62
2022/06/08 13:52:34;;;;;;;52.92;16.77;;;;;;;25.50;35.85;95787.75;2079920;28;20708;-63
2022/06/08 13:53:35;;;;;;;61.28;19.67;;;;;;;24.44;35.81;95776.88;2078890;28;20531;-62
2022/06/08 13:54:39;;;;;;;64.35;19.05;;;;;;;24.57;36.18;95778.97;2064360;28;20646;-63
2022/06/08 13:55:46;;;;;;;57.83;17.77;;;;;;;24.93;36.22;95783.75;2063671;28;20209;-62
2022/06/08 13:56:48;;;;;;;69.38;17.25;;;;;;;25.24;35.23;95783.66;2058626;28;20242;-62
2022/06/08 13:57:54;;;;;;;55.95;19.27;;;;;;;25.25;36.38;95782.66;2078537;28;20197;-63
2022/06/08 13:58:57;;;;;;;53.70;16.15;;;;;;;24.96;36.44;95783.38;2072683;28;20202;-62
2022/06/08 13:59:58;;;;;;;51.58;15.80;;;;;;;24.66;36.76;95785.09;2064463;28;20222;-63
2022/06/08 14:01:11;;;;;;;60.28;22.75;;;;;;;24.83;36.78;95788.50;2064264;28;20207;-62
2022/06/08 14:02:41;;;;;;;58.03;18.00;;;;;;;24.80;37.37;95780.84;2061382;28;20226;-63
2022/06/08 14:03:43;;;;;;;56.72;16.00;;;;;;;24.44;38.00;95779.56;2063126;28;20195;-62
2022/06/08 14:04:45;;;;;;;63.97;24.75;;;;;;;23.88;37.50;95777.81;2064215;28;20198;-63
